Time;durP1;ratioP1;P1;durP2;ratioP2;P2;SDS_P1;SDS_P2;PMS_P1;PMS_P2;Temp;Humidity;BMP_temperature;BMP_pressure;BME280_temperature;BME280_humidity;BME280_pressure;Samples;Min_cycle;Max_cycle;Signal;HPM_P1;HPM_P2
2022/09/02 00:00:42;;;;;;;2.83;2.63;;;15.10;99.90;;;;;;494098;241;28922;-72
2022/09/02 00:02:43;;;;;;;2.97;2.77;;;15.00;99.90;;;;;;494051;241;28581;-69
2022/09/02 00:04:44;;;;;;;3.27;3.07;;;15.10;99.90;;;;;;494085;241;28833;-68
2022/09/02 00:06:46;;;;;;;3.43;3.23;;;15.00;99.90;;;;;;494005;241;28791;-68
2022/09/02 00:08:47;;;;;;;3.33;3.13;;;15.10;99.90;;;;;;493934;241;29336;-69
2022/09/02 00:10:48;;;;;;;3.70;3.40;;;15.00;99.90;;;;;;493949;241;29456;-72
2022/09/02 00:12:49;;;;;;;3.00;2.70;;;15.00;99.90;;;;;;493842;241;29294;-67
2022/09/02 00:14:51;;;;;;;2.97;2.77;;;14.90;99.90;;;;;;493945;241;28880;-69
2022/09/02 00:16:52;;;;;;;3.30;3.10;;;14.70;99.90;;;;;;493990;241;28916;-68
2022/09/02 00:18:55;;;;;;;3.27;3.07;;;14.70;99.90;;;;;;494044;241;28919;-69
2022/09/02 00:20:54;;;;;;;3.40;3.20;;;14.60;99.90;;;;;;493952;241;28829;-71
2022/09/02 00:22:56;;;;;;;3.43;3.23;;;14.60;99.90;;;;;;494067;241;28396;-68
2022/09/02 00:24:57;;;;;;;3.10;2.90;;;14.60;99.90;;;;;;494077;241;28431;-69
2022/09/02 00:26:58;;;;;;;2.73;2.63;;;14.60;99.90;;;;;;493980;241;28895;-68
2022/09/02 00:29:00;;;;;;;3.10;2.90;;;14.60;99.90;;;;;;494078;241;28587;-68
2022/09/02 00:31:01;;;;;;;3.80;3.60;;;14.70;99.90;;;;;;494010;241;28409;-69
2022/09/02 00:33:02;;;;;;;3.60;3.40;;;14.70;99.90;;;;;;494081;241;29117;-68
2022/09/02 00:35:03;;;;;;;3.97;3.67;;;14.70;99.90;;;;;;494083;241;29377;-68
2022/09/02 00:37:04;;;;;;;3.23;2.93;;;14.70;99.90;;;;;;493994;241;29090;-68
2022/09/02 00:39:07;;;;;;;3.70;3.40;;;14.60;99.90;;;;;;494071;241;29260;-69
2022/09/02 00:41:07;;;;;;;3.60;3.40;;;14.60;99.90;;;;;;494014;241;28573;-71
2022/09/02 00:43:08;;;;;;;3.20;3.00;;;14.50;99.90;;;;;;494067;241;28805;-68
2022/09/02 00:45:09;;;;;;;3.83;3.53;;;14.50;99.90;;;;;;494055;241;28452;-69
2022/09/02 00:47:11;;;;;;;4.07;3.77;;;14.50;99.90;;;;;;493996;241;28797;-68
2022/09/02 00:49:12;;;;;;;3.93;3.63;;;14.50;99.90;;;;;;494092;241;28832;-69
2022/09/02 00:51:13;;;;;;;4.13;3.83;;;14.50;99.90;;;;;;494094;241;28834;-71
2022/09/02 00:53:14;;;;;;;4.60;4.20;;;14.50;99.90;;;;;;494089;241;28503;-68
2022/09/02 00:55:16;;;;;;;4.30;3.40;;;14.50;99.90;;;;;;494085;241;28545;-69
2022/09/02 00:57:18;;;;;;;3.80;3.50;;;14.50;99.90;;;;;;494047;241;28567;-68
2022/09/02 00:59:18;;;;;;;4.07;3.77;;;14.50;99.90;;;;;;494036;241;29320;-69
2022/09/02 01:01:21;;;;;;;3.97;3.67;;;14.50;99.90;;;;;;494098;241;29433;-71
2022/09/02 01:03:21;;;;;;;3.20;3.00;;;14.50;99.90;;;;;;494008;237;28726;-68
2022/09/02 01:05:22;;;;;;;3.60;3.30;;;14.50;99.90;;;;;;494060;241;28442;-70
2022/09/02 01:07:24;;;;;;;3.40;3.20;;;14.50;99.90;;;;;;494011;241;28427;-68
2022/09/02 01:09:24;;;;;;;3.57;3.37;;;14.50;99.90;;;;;;494043;241;28483;-69
2022/09/02 01:11:26;;;;;;;4.40;4.10;;;14.50;99.90;;;;;;494109;241;28829;-70
2022/09/02 01:13:27;;;;;;;4.17;3.87;;;14.50;99.90;;;;;;493991;241;28406;-69
2022/09/02 01:15:29;;;;;;;4.33;3.90;;;14.40;99.90;;;;;;494087;241;28217;-68
2022/09/02 01:17:33;;;;;;;3.97;3.67;;;14.40;99.90;;;;;;493937;241;28869;-68
2022/09/02 01:19:31;;;;;;;4.40;4.00;;;14.30;99.90;;;;;;493812;241;28372;-68
2022/09/02 01:21:32;;;;;;;4.30;3.60;;;14.30;99.90;;;;;;494103;241;28493;-70
2022/09/02 01:23:33;;;;;;;4.00;3.70;;;14.30;99.90;;;;;;494098;241;28909;-69
2022/09/02 01:25:35;;;;;;;3.93;3.70;;;14.30;99.90;;;;;;494097;241;28544;-69
2022/09/02 01:27:36;;;;;;;4.00;3.70;;;14.20;99.90;;;;;;493969;241;28510;-72
2022/09/02 01:29:37;;;;;;;4.17;3.83;;;14.20;99.90;;;;;;494096;241;28291;-69
2022/09/02 01:31:38;;;;;;;4.50;4.20;;;14.10;99.90;;;;;;494112;241;28957;-70
2022/09/02 01:33:40;;;;;;;4.67;4.33;;;14.10;99.90;;;;;;494116;241;28721;-68
2022/09/02 01:35:41;;;;;;;5.03;4.10;;;14.10;99.90;;;;;;494086;241;28922;-68
2022/09/02 01:37:42;;;;;;;4.57;4.27;;;14.10;99.90;;;;;;493952;241;28564;-69
2022/09/02 01:39:44;;;;;;;4.27;3.97;;;14.10;99.90;;;;;;494096;241;28364;-70
2022/09/02 01:41:45;;;;;;;23.47;4.80;;;14.10;99.90;;;;;;494042;241;28430;-70
2022/09/02 01:43:46;;;;;;;4.40;4.10;;;14.10;99.90;;;;;;494061;241;28304;-68
2022/09/02 01:45:47;;;;;;;5.50;4.00;;;14.10;99.90;;;;;;494047;241;28421;-69
2022/09/02 01:47:48;;;;;;;4.33;4.03;;;14.10;99.90;;;;;;493976;241;28644;-69
2022/09/02 01:49:50;;;;;;;4.77;4.37;;;14.10;99.90;;;;;;494116;241;28805;-69
2022/09/02 01:51:51;;;;;;;4.10;3.80;;;14.10;99.90;;;;;;494087;241;28414;-68
2022/09/02 01:53:52;;;;;;;4.40;4.00;;;14.20;99.90;;;;;;494088;241;28417;-68
2022/09/02 01:55:53;;;;;;;3.87;3.67;;;14.20;99.90;;;;;;494043;241;29007;-69
2022/09/02 01:57:55;;;;;;;4.37;4.07;;;14.20;99.90;;;;;;493923;241;28913;-70
2022/09/02 01:59:56;;;;;;;4.00;3.70;;;14.20;99.90;;;;;;494078;241;28829;-68
2022/09/02 02:01:57;;;;;;;4.40;4.10;;;14.20;99.90;;;;;;494094;241;28527;-69
2022/09/02 02:03:59;;;;;;;3.90;3.70;;;14.10;99.90;;;;;;494088;241;28361;-68
2022/09/02 02:06:00;;;;;;;4.30;4.00;;;14.10;99.90;;;;;;494039;241;28391;-69
2022/09/02 02:08:01;;;;;;;4.90;4.50;;;14.00;99.90;;;;;;494059;241;28542;-72
2022/09/02 02:10:02;;;;;;;4.70;4.33;;;14.00;99.90;;;;;;494079;241;28422;-69
2022/09/02 02:12:04;;;;;;;4.83;4.43;;;13.90;99.90;;;;;;494050;241;28537;-73
2022/09/02 02:14:05;;;;;;;4.40;4.10;;;13.90;99.90;;;;;;494059;241;28365;-68
2022/09/02 02:16:06;;;;;;;4.50;4.10;;;13.90;99.90;;;;;;493984;241;28395;-74
2022/09/02 02:18:07;;;;;;;8.90;4.40;;;13.90;99.90;;;;;;493987;241;28382;-72
2022/09/02 02:20:08;;;;;;;7.17;4.70;;;13.80;99.90;;;;;;494090;241;28647;-69
2022/09/02 02:22:10;;;;;;;4.70;4.30;;;13.80;99.90;;;;;;494070;241;28970;-71
2022/09/02 02:24:11;;;;;;;4.63;4.33;;;13.80;99.90;;;;;;494109;241;29066;-69
2022/09/02 02:26:12;;;;;;;4.40;4.10;;;13.80;99.90;;;;;;493947;241;29011;-70
2022/09/02 02:28:13;;;;;;;4.33;4.03;;;13.80;99.90;;;;;;494104;241;28436;-73
2022/09/02 02:30:15;;;;;;;4.70;4.23;;;13.80;99.90;;;;;;494071;241;28196;-69
2022/09/02 02:32:17;;;;;;;4.20;3.90;;;13.70;99.90;;;;;;494072;241;28253;-70
2022/09/02 02:34:17;;;;;;;4.20;3.90;;;13.70;99.90;;;;;;494035;241;28279;-69
2022/09/02 02:36:18;;;;;;;4.53;4.23;;;13.70;99.90;;;;;;494010;241;28312;-69
2022/09/02 02:38:20;;;;;;;4.33;4.03;;;13.80;99.90;;;;;;494074;241;28539;-73
2022/09/02 02:40:21;;;;;;;4.30;4.00;;;13.80;99.90;;;;;;494110;241;28184;-69
2022/09/02 02:42:22;;;;;;;3.80;3.50;;;13.70;99.90;;;;;;494079;241;28458;-69
2022/09/02 02:44:24;;;;;;;4.30;3.90;;;13.70;99.90;;;;;;494109;241;28499;-69
2022/09/02 02:46:25;;;;;;;4.80;4.13;;;13.50;99.90;;;;;;493995;241;28899;-70
2022/09/02 02:48:26;;;;;;;4.63;4.33;;;13.40;99.90;;;;;;494083;241;28965;-68
2022/09/02 02:50:27;;;;;;;4.60;4.20;;;13.40;99.90;;;;;;494095;241;28823;-69
2022/09/02 02:52:28;;;;;;;4.33;3.93;;;13.50;99.90;;;;;;494109;241;28297;-71
2022/09/02 02:54:30;;;;;;;4.20;3.90;;;13.40;99.90;;;;;;494117;241;28254;-69
2022/09/02 02:56:31;;;;;;;4.40;4.00;;;13.30;99.90;;;;;;494007;241;28412;-69
2022/09/02 02:58:32;;;;;;;4.43;4.10;;;13.30;99.90;;;;;;494056;241;28315;-68
2022/09/02 03:00:33;;;;;;;4.30;4.00;;;13.20;99.90;;;;;;494075;241;28278;-69
2022/09/02 03:02:35;;;;;;;4.63;4.23;;;13.20;99.90;;;;;;494071;241;28917;-70
2022/09/02 03:04:36;;;;;;;4.70;4.40;;;13.20;99.90;;;;;;494080;241;28178;-69
2022/09/02 03:06:37;;;;;;;3.90;3.63;;;13.20;99.90;;;;;;493835;241;28214;-69
2022/09/02 03:08:38;;;;;;;4.50;4.10;;;13.30;99.90;;;;;;494056;241;28187;-69
2022/09/02 03:10:40;;;;;;;4.90;4.50;;;13.30;99.90;;;;;;494071;241;29523;-69
2022/09/02 03:12:46;;;;;;;4.10;3.80;;;13.30;99.90;;;;;;494042;241;28727;-72
2022/09/02 03:14:43;;;;;;;4.20;3.90;;;13.30;99.90;;;;;;493563;241;28773;-67
2022/09/02 03:16:43;;;;;;;4.33;4.03;;;13.30;99.90;;;;;;493969;241;28212;-70
2022/09/02 03:18:45;;;;;;;4.20;3.90;;;13.20;99.90;;;;;;494040;241;28174;-69
2022/09/02 03:20:46;;;;;;;4.10;3.80;;;13.20;99.90;;;;;;494053;241;28168;-69
2022/09/02 03:22:47;;;;;;;4.70;4.30;;;13.20;99.90;;;;;;494071;241;28290;-72
2022/09/02 03:24:48;;;;;;;4.13;3.90;;;12.90;99.90;;;;;;494040;241;28170;-69
2022/09/02 03:26:50;;;;;;;4.37;4.00;;;13.00;99.90;;;;;;493982;241;28798;-69
2022/09/02 03:28:51;;;;;;;4.77;4.37;;;12.80;99.90;;;;;;494080;241;28247;-67
2022/09/02 03:30:52;;;;;;;4.50;4.20;;;12.70;99.90;;;;;;494064;241;28305;-68
2022/09/02 03:32:54;;;;;;;5.07;4.60;;;12.70;99.90;;;;;;494088;241;28318;-72
2022/09/02 03:34:55;;;;;;;4.40;4.10;;;12.60;99.90;;;;;;494066;241;28712;-68
2022/09/02 03:36:56;;;;;;;4.27;3.97;;;12.80;99.90;;;;;;494029;241;28745;-70
2022/09/02 03:38:57;;;;;;;4.43;4.10;;;12.80;99.90;;;;;;494071;241;29311;-68
2022/09/02 03:40:58;;;;;;;4.10;3.80;;;12.90;99.90;;;;;;494056;241;28568;-69
2022/09/02 03:43:00;;;;;;;4.03;3.70;;;12.90;99.90;;;;;;494087;241;28404;-72
2022/09/02 03:45:02;;;;;;;4.10;3.80;;;;;;;;;;494077;241;28275;-68
2022/09/02 03:47:03;;;;;;;4.40;4.10;;;12.90;99.90;;;;;;494006;241;26993;-69
2022/09/02 03:49:05;;;;;;;4.23;3.93;;;12.90;99.90;;;;;;494070;241;28757;-69
2022/09/02 03:51:07;;;;;;;4.20;3.90;;;;;;;;;;493988;241;28866;-68
2022/09/02 03:53:08;;;;;;;4.30;3.90;;;12.90;99.90;;;;;;494095;241;26629;-69
2022/09/02 03:55:10;;;;;;;4.53;4.23;;;12.90;99.90;;;;;;494066;241;28186;-68
2022/09/02 03:57:11;;;;;;;3.80;3.60;;;12.90;99.90;;;;;;494041;241;28905;-69
2022/09/02 03:59:12;;;;;;;4.70;4.30;;;12.80;99.90;;;;;;494100;241;28630;-68
2022/09/02 04:01:13;;;;;;;4.17;3.87;;;12.80;99.90;;;;;;494109;241;28834;-69
2022/09/02 04:03:15;;;;;;;4.30;3.90;;;12.80;99.90;;;;;;494080;241;28720;-69
2022/09/02 04:05:16;;;;;;;4.40;4.10;;;12.70;99.90;;;;;;494069;241;28703;-68
2022/09/02 04:07:17;;;;;;;3.87;3.67;;;12.70;99.90;;;;;;494010;241;28667;-69
2022/09/02 04:09:18;;;;;;;3.93;3.63;;;12.70;99.90;;;;;;494059;241;28643;-68
2022/09/02 04:11:20;;;;;;;4.17;3.87;;;12.70;99.90;;;;;;494080;241;28375;-68
2022/09/02 04:13:21;;;;;;;3.40;3.20;;;12.60;99.90;;;;;;494068;241;28304;-71
2022/09/02 04:15:24;;;;;;;4.23;3.93;;;;;;;;;;494070;241;28881;-69
2022/09/02 04:17:24;;;;;;;4.10;3.80;;;12.50;99.90;;;;;;494036;239;28337;-68
2022/09/02 04:19:26;;;;;;;4.00;3.70;;;12.50;99.90;;;;;;494103;241;28371;-68
2022/09/02 04:21:27;;;;;;;5.10;4.30;;;12.40;99.90;;;;;;494034;241;28503;-70
2022/09/02 04:23:28;;;;;;;4.70;4.30;;;12.40;99.90;;;;;;494103;241;28875;-68
2022/09/02 04:25:30;;;;;;;4.30;3.93;;;12.40;99.90;;;;;;494086;241;28516;-69
2022/09/02 04:27:31;;;;;;;4.77;4.43;;;12.50;99.90;;;;;;493997;241;28565;-67
2022/09/02 04:29:32;;;;;;;4.37;4.07;;;12.50;99.90;;;;;;494128;241;28085;-68
2022/09/02 04:31:34;;;;;;;3.97;3.67;;;12.60;99.90;;;;;;494090;241;28584;-72
2022/09/02 04:33:35;;;;;;;4.20;3.90;;;12.60;99.90;;;;;;494068;241;28490;-69
2022/09/02 04:35:36;;;;;;;4.07;3.77;;;12.70;99.90;;;;;;494046;241;29308;-69
2022/09/02 04:37:37;;;;;;;3.60;3.30;;;12.70;99.90;;;;;;494026;241;29243;-68
2022/09/02 04:39:38;;;;;;;4.13;3.70;;;12.70;99.90;;;;;;494079;237;29277;-68
2022/09/02 04:41:41;;;;;;;4.20;3.90;;;12.70;99.90;;;;;;494094;241;28324;-72
2022/09/02 04:43:41;;;;;;;4.40;4.10;;;12.60;99.90;;;;;;494016;241;28123;-68
2022/09/02 04:45:42;;;;;;;4.00;3.70;;;12.60;99.90;;;;;;494074;241;28056;-69
2022/09/02 04:47:43;;;;;;;4.00;3.70;;;12.50;99.90;;;;;;494027;241;28534;-68
2022/09/02 04:49:45;;;;;;;4.30;4.00;;;12.40;99.90;;;;;;494072;241;28094;-69
2022/09/02 04:51:46;;;;;;;4.27;3.97;;;12.40;99.90;;;;;;494102;241;28078;-72
2022/09/02 04:53:47;;;;;;;4.00;3.70;;;12.40;99.90;;;;;;494081;241;28475;-68
2022/09/02 04:55:48;;;;;;;4.03;3.73;;;12.50;99.90;;;;;;494103;237;28485;-70
2022/09/02 04:57:50;;;;;;;4.27;3.97;;;12.50;99.90;;;;;;494041;241;29248;-68
2022/09/02 04:59:51;;;;;;;4.97;3.70;;;12.60;99.90;;;;;;494117;241;28760;-69
2022/09/02 05:01:52;;;;;;;4.17;3.87;;;12.50;99.90;;;;;;494094;241;28669;-69
2022/09/02 05:03:53;;;;;;;4.80;4.40;;;12.40;99.90;;;;;;494094;241;29383;-68
2022/09/02 05:05:55;;;;;;;3.70;3.50;;;12.50;99.90;;;;;;494081;241;28547;-70
2022/09/02 05:07:57;;;;;;;3.77;3.47;;;;;;;;;;494040;241;28436;-68
2022/09/02 05:09:58;;;;;;;3.73;3.53;;;12.40;99.90;;;;;;494094;241;28012;-72
2022/09/02 05:12:03;;;;;;;3.90;3.60;;;12.40;99.90;;;;;;494091;241;28748;-68
2022/09/02 05:14:01;;;;;;;4.20;3.90;;;12.40;99.90;;;;;;493871;241;28557;-69
2022/09/02 05:16:02;;;;;;;3.47;3.27;;;12.50;99.90;;;;;;494076;241;28632;-68
2022/09/02 05:18:03;;;;;;;4.50;4.10;;;12.60;99.90;;;;;;494061;241;28539;-69
2022/09/02 05:20:05;;;;;;;4.00;3.70;;;12.60;99.90;;;;;;494087;241;28344;-68
2022/09/02 05:22:06;;;;;;;4.03;3.73;;;12.60;99.90;;;;;;494096;241;28867;-68
2022/09/02 05:24:07;;;;;;;3.60;3.40;;;12.60;99.90;;;;;;494084;241;28846;-70
2022/09/02 05:26:09;;;;;;;3.50;3.20;;;12.70;99.90;;;;;;494078;241;28797;-67
2022/09/02 05:28:10;;;;;;;3.80;3.50;;;12.50;99.90;;;;;;493945;241;29304;-68
2022/09/02 05:30:11;;;;;;;3.53;3.33;;;12.60;99.90;;;;;;494087;241;28730;-68
2022/09/02 05:32:12;;;;;;;4.00;3.70;;;12.60;99.90;;;;;;494095;241;28945;-69
2022/09/02 05:34:13;;;;;;;4.07;3.87;;;12.70;99.90;;;;;;494099;241;28831;-71
2022/09/02 05:36:15;;;;;;;3.70;3.50;;;12.70;99.90;;;;;;493991;241;29357;-68
2022/09/02 05:38:16;;;;;;;4.10;3.80;;;12.70;99.90;;;;;;494055;241;28722;-68
2022/09/02 05:40:17;;;;;;;3.80;3.50;;;12.90;99.90;;;;;;494100;241;28602;-68
2022/09/02 05:42:19;;;;;;;3.27;3.07;;;13.00;99.90;;;;;;494089;241;28506;-68
2022/09/02 05:44:20;;;;;;;3.13;2.93;;;13.00;99.90;;;;;;494086;241;28664;-71
2022/09/02 05:46:22;;;;;;;3.33;3.13;;;13.10;99.90;;;;;;494031;241;28318;-68
2022/09/02 05:50:41;;;;;;;3.70;3.40;;;13.40;99.90;;;;;;494092;241;28929;-73
2022/09/02 05:52:43;;;;;;;3.43;3.20;;;13.40;99.90;;;;;;494052;241;28201;-69
2022/09/02 05:54:44;;;;;;;4.30;3.17;;;13.50;99.90;;;;;;494012;241;28239;-70
2022/09/02 05:56:45;;;;;;;3.80;3.50;;;13.60;99.90;;;;;;493911;241;28403;-68
2022/09/02 05:58:46;;;;;;;3.50;3.30;;;13.60;99.90;;;;;;493966;241;28259;-69
2022/09/02 06:00:48;;;;;;;3.23;3.03;;;13.70;99.90;;;;;;494095;241;28246;-68
2022/09/02 06:02:49;;;;;;;3.40;3.10;;;13.70;99.90;;;;;;494070;241;28789;-69
2022/09/02 06:04:52;;;;;;;3.13;2.93;;;13.80;99.90;;;;;;494054;241;28186;-70
2022/09/02 06:06:51;;;;;;;3.57;3.27;;;13.80;99.90;;;;;;493931;241;28186;-68
2022/09/02 06:08:53;;;;;;;3.30;3.10;;;13.90;99.90;;;;;;494055;241;28324;-68
2022/09/02 06:10:54;;;;;;;3.43;3.13;;;14.00;99.90;;;;;;494001;241;29015;-68
2022/09/02 06:12:55;;;;;;;3.50;3.00;;;14.00;99.90;;;;;;494088;241;28727;-69
2022/09/02 06:14:56;;;;;;;3.10;2.90;;;14.10;99.90;;;;;;494082;241;28928;-70
2022/09/02 06:16:58;;;;;;;4.23;3.60;;;14.10;99.90;;;;;;494042;241;28521;-68
2022/09/02 06:18:59;;;;;;;3.50;3.20;;;14.20;99.90;;;;;;494112;241;28214;-69
2022/09/02 06:21:00;;;;;;;3.60;3.40;;;14.20;99.90;;;;;;494088;241;28307;-68
2022/09/02 06:23:02;;;;;;;5.37;3.77;;;14.30;99.90;;;;;;494078;241;28447;-68
2022/09/02 06:25:03;;;;;;;3.77;3.47;;;14.40;99.90;;;;;;494008;241;28473;-70
2022/09/02 06:27:06;;;;;;;3.70;3.40;;;14.50;99.90;;;;;;493913;241;28572;-68
2022/09/02 06:29:05;;;;;;;3.70;3.50;;;14.50;99.90;;;;;;493975;241;28535;-68
2022/09/02 06:31:06;;;;;;;3.43;3.13;;;14.50;99.90;;;;;;494054;241;28861;-69
2022/09/02 06:33:08;;;;;;;4.10;3.80;;;14.60;99.90;;;;;;494082;241;28340;-68
2022/09/02 06:35:09;;;;;;;3.60;3.30;;;14.60;99.90;;;;;;494078;241;28876;-69
2022/09/02 06:37:10;;;;;;;3.77;3.47;;;14.70;99.90;;;;;;494029;241;29253;-67
2022/09/02 06:39:12;;;;;;;3.40;3.20;;;14.70;99.90;;;;;;494090;241;29122;-69
2022/09/02 06:41:13;;;;;;;3.07;2.87;;;14.70;99.90;;;;;;494110;241;28443;-72
2022/09/02 06:43:14;;;;;;;3.63;3.20;;;14.80;99.90;;;;;;494135;241;28808;-68
2022/09/02 06:45:15;;;;;;;8.13;3.23;;;14.90;99.90;;;;;;494085;241;28634;-69
2022/09/02 06:47:17;;;;;;;3.67;3.37;;;14.90;99.90;;;;;;494044;241;28522;-69
2022/09/02 06:49:18;;;;;;;3.60;3.30;;;15.10;99.90;;;;;;494060;241;28460;-69
2022/09/02 06:51:19;;;;;;;3.57;3.27;;;15.10;99.90;;;;;;494098;241;28951;-69
2022/09/02 06:53:20;;;;;;;3.60;3.30;;;15.20;99.90;;;;;;494059;241;28900;-69
2022/09/02 06:55:22;;;;;;;3.07;2.73;;;15.10;99.90;;;;;;494001;241;28544;-71
2022/09/02 06:57:23;;;;;;;3.27;2.97;;;15.10;99.90;;;;;;493975;241;28539;-69
2022/09/02 06:59:24;;;;;;;3.20;3.00;;;15.20;99.90;;;;;;494077;241;29373;-69
2022/09/02 07:01:25;;;;;;;3.20;3.00;;;15.30;99.90;;;;;;494068;241;29863;-72
2022/09/02 07:05:46;;;;;;;2.97;2.77;;;15.50;99.90;;;;;;494092;241;29375;-69
2022/09/02 07:07:48;;;;;;;3.00;2.80;;;15.50;99.90;;;;;;494019;241;29398;-71
2022/09/02 07:09:49;;;;;;;3.13;2.70;;;15.50;99.90;;;;;;494045;240;29272;-68
2022/09/02 07:11:50;;;;;;;2.60;2.50;;;15.50;99.90;;;;;;494091;241;29325;-70
2022/09/02 07:13:51;;;;;;;3.67;3.10;;;15.60;99.90;;;;;;494075;239;28793;-68
2022/09/02 07:15:53;;;;;;;3.30;2.90;;;15.80;99.90;;;;;;494052;241;28813;-69
2022/09/02 07:17:54;;;;;;;3.30;2.90;;;15.80;99.90;;;;;;494026;241;28978;-71
2022/09/02 07:19:58;;;;;;;2.60;2.43;;;15.90;99.90;;;;;;494086;237;28906;-69
2022/09/02 07:21:56;;;;;;;3.03;2.83;;;16.00;99.90;;;;;;493809;241;28814;-69
2022/09/02 07:23:58;;;;;;;2.93;2.83;;;16.00;99.90;;;;;;494019;241;28824;-68
2022/09/02 07:25:59;;;;;;;3.50;2.70;;;16.10;99.90;;;;;;493884;241;28839;-75
2022/09/02 07:28:00;;;;;;;8.03;2.80;;;16.20;99.90;;;;;;493961;241;28950;-71
2022/09/02 07:30:03;;;;;;;3.73;2.63;;;16.30;99.90;;;;;;494060;241;28816;-68
2022/09/02 07:32:03;;;;;;;3.03;2.83;;;16.30;99.90;;;;;;493955;241;29299;-71
2022/09/02 07:34:04;;;;;;;2.80;2.60;;;16.30;99.90;;;;;;494054;241;29287;-69
2022/09/02 07:36:05;;;;;;;3.03;2.73;;;16.50;99.90;;;;;;494019;241;29308;-69
2022/09/02 07:38:07;;;;;;;2.60;2.50;;;16.60;99.90;;;;;;494091;241;28835;-73
2022/09/02 07:40:09;;;;;;;2.60;2.43;;;16.50;99.90;;;;;;494026;237;28861;-69
2022/09/02 07:42:09;;;;;;;2.73;2.53;;;16.50;99.90;;;;;;494009;241;28853;-68
2022/09/02 07:44:10;;;;;;;2.57;2.47;;;16.70;99.90;;;;;;494061;241;28883;-69
2022/09/02 07:46:11;;;;;;;2.57;2.47;;;16.90;99.90;;;;;;494009;241;28814;-68
2022/09/02 07:48:14;;;;;;;2.93;2.73;;;16.90;99.90;;;;;;494098;241;28845;-68
2022/09/02 07:50:14;;;;;;;2.80;2.60;;;16.90;99.90;;;;;;493980;241;28844;-69
2022/09/02 07:52:15;;;;;;;2.70;2.40;;;17.00;99.90;;;;;;494051;241;28828;-69
2022/09/02 07:54:17;;;;;;;3.03;2.83;;;17.00;99.90;;;;;;494085;241;28867;-69
2022/09/02 07:56:18;;;;;;;2.40;2.30;;;17.10;99.90;;;;;;494012;241;29298;-68
2022/09/02 07:58:19;;;;;;;2.50;2.40;;;17.20;99.90;;;;;;494070;241;29443;-73
2022/09/02 08:00:21;;;;;;;3.33;2.33;;;17.20;99.90;;;;;;494097;241;29330;-68
2022/09/02 08:02:21;;;;;;;2.23;2.13;;;17.10;99.90;;;;;;494001;241;29308;-70
2022/09/02 08:04:23;;;;;;;2.47;2.37;;;17.10;99.90;;;;;;494088;241;28803;-69
2022/09/02 08:06:26;;;;;;;2.60;2.23;;;17.30;99.90;;;;;;493955;241;28867;-69
2022/09/02 08:08:26;;;;;;;2.60;2.40;;;17.40;99.90;;;;;;493880;241;28842;-70
2022/09/02 08:10:28;;;;;;;2.60;2.40;;;17.50;99.90;;;;;;494083;241;28813;-70
2022/09/02 08:12:28;;;;;;;2.90;2.43;;;17.50;99.90;;;;;;493990;241;28914;-70
2022/09/02 08:14:29;;;;;;;4.53;2.23;;;17.70;99.90;;;;;;494053;241;28913;-69
2022/09/02 08:16:30;;;;;;;2.20;2.10;;;17.60;99.90;;;;;;494060;239;28841;-70
2022/09/02 08:18:32;;;;;;;2.40;2.27;;;17.70;99.90;;;;;;494117;241;28927;-73
2022/09/02 08:20:33;;;;;;;2.50;2.40;;;17.80;99.90;;;;;;494097;241;29268;-69
2022/09/02 08:22:34;;;;;;;2.43;2.23;;;17.80;99.90;;;;;;494104;241;29393;-70
2022/09/02 08:24:35;;;;;;;2.40;2.20;;;17.90;99.90;;;;;;494096;241;29281;-69
2022/09/02 08:26:37;;;;;;;2.67;2.50;;;18.00;99.90;;;;;;494035;241;29391;-70
2022/09/02 08:28:38;;;;;;;2.93;2.73;;;18.10;99.90;;;;;;494091;241;28933;-70
2022/09/02 08:30:39;;;;;;;2.17;2.07;;;18.10;99.90;;;;;;494094;241;28844;-69
2022/09/02 08:32:40;;;;;;;2.50;2.30;;;18.00;99.90;;;;;;494075;241;28927;-71
2022/09/02 08:34:41;;;;;;;3.53;2.57;;;18.20;99.90;;;;;;494040;241;28789;-69
2022/09/02 08:36:43;;;;;;;2.60;2.40;;;18.30;99.90;;;;;;493971;241;28911;-69
2022/09/02 08:38:44;;;;;;;3.40;2.70;;;18.30;99.90;;;;;;494067;241;28838;-73
2022/09/02 08:40:45;;;;;;;2.40;2.27;;;18.20;99.90;;;;;;494095;241;28806;-71
2022/09/02 08:42:46;;;;;;;2.47;2.37;;;18.30;99.90;;;;;;494110;241;28843;-70
2022/09/02 08:44:48;;;;;;;2.83;2.63;;;18.40;99.90;;;;;;494118;241;28797;-69
2022/09/02 08:46:49;;;;;;;2.70;2.50;;;18.50;99.90;;;;;;494041;241;29327;-69
2022/09/02 08:48:51;;;;;;;2.80;2.53;;;18.60;99.90;;;;;;494039;241;29511;-70
2022/09/02 08:50:51;;;;;;;2.60;2.40;;;18.70;99.90;;;;;;494043;241;29385;-68
2022/09/02 08:52:53;;;;;;;2.97;2.00;;;18.80;99.90;;;;;;494095;241;28836;-71
2022/09/02 08:54:57;;;;;;;2.23;2.13;;;18.80;99.90;;;;;;494095;241;28823;-69
2022/09/02 08:56:58;;;;;;;2.50;2.30;;;18.80;99.90;;;;;;494012;241;28798;-69
2022/09/02 08:59:01;;;;;;;2.43;2.23;;;18.90;99.90;;;;;;494056;241;28829;-69
2022/09/02 09:01:01;;;;;;;2.77;2.40;;;19.10;99.90;;;;;;493910;241;29342;-72
2022/09/02 09:03:02;;;;;;;2.50;2.40;;;19.00;99.90;;;;;;494039;241;29282;-69
2022/09/02 09:05:05;;;;;;;2.83;2.63;;;18.80;99.90;;;;;;494071;241;29721;-70
2022/09/02 09:07:04;;;;;;;2.30;2.20;;;18.90;99.90;;;;;;493927;241;29295;-69
2022/09/02 09:09:06;;;;;;;2.73;2.27;;;19.20;99.90;;;;;;494071;241;28890;-70
2022/09/02 09:11:09;;;;;;;2.87;2.50;;;19.40;99.90;;;;;;494076;241;28840;-72
2022/09/02 09:13:08;;;;;;;5.23;2.47;;;19.30;99.90;;;;;;493903;241;28780;-69
2022/09/02 09:15:09;;;;;;;5.70;2.50;;;19.20;99.90;;;;;;494097;241;28970;-69
2022/09/02 09:17:11;;;;;;;2.57;2.40;;;19.20;99.90;;;;;;494030;241;28804;-69
2022/09/02 09:19:12;;;;;;;2.27;2.13;;;19.20;99.90;;;;;;493987;241;28822;-69
2022/09/02 09:21:13;;;;;;;3.17;2.50;;;19.40;99.90;;;;;;494086;241;28847;-72
2022/09/02 09:23:14;;;;;;;2.43;2.20;;;19.40;99.90;;;;;;494084;241;28838;-69
2022/09/02 09:25:16;;;;;;;2.30;2.20;;;19.30;99.90;;;;;;494094;241;29387;-70
2022/09/02 09:27:17;;;;;;;2.50;2.30;;;19.40;99.90;;;;;;494014;241;29258;-69
2022/09/02 09:29:18;;;;;;;2.03;1.92;;;19.40;99.90;;;;;;490456;241;36566;-70
2022/09/02 09:31:19;;;;;;;2.27;2.17;;;19.40;99.90;;;;;;494103;241;27970;-72
2022/09/02 09:33:21;;;;;;;2.50;2.30;;;19.40;99.90;;;;;;494091;241;28779;-69
2022/09/02 09:35:22;;;;;;;4.27;2.20;;;19.50;99.90;;;;;;494115;241;28935;-71
2022/09/02 09:37:23;;;;;;;2.73;2.53;;;19.60;99.90;;;;;;494007;241;28885;-70
2022/09/02 09:39:24;;;;;;;2.50;2.30;;;19.50;99.90;;;;;;494080;241;28839;-71
2022/09/02 09:41:27;;;;;;;2.20;2.10;;;19.60;99.90;;;;;;494104;241;28839;-75
2022/09/02 09:43:27;;;;;;;2.30;2.10;;;19.70;99.90;;;;;;493971;241;28812;-70
2022/09/02 09:45:28;;;;;;;2.63;2.43;;;19.80;99.90;;;;;;494087;241;28932;-70
2022/09/02 09:47:29;;;;;;;2.20;2.10;;;19.80;99.90;;;;;;494036;241;28800;-69
2022/09/02 09:49:31;;;;;;;2.60;2.10;;;19.80;99.90;;;;;;494077;241;29372;-69
2022/09/02 09:51:32;;;;;;;2.63;2.43;;;19.70;99.90;;;;;;494106;241;29313;-73
2022/09/02 09:53:33;;;;;;;2.10;2.00;;;19.70;99.90;;;;;;493893;241;29323;-69
2022/09/02 09:55:34;;;;;;;2.47;2.20;;;19.70;99.90;;;;;;494077;241;29407;-70
2022/09/02 09:57:36;;;;;;;2.50;2.30;;;19.80;99.90;;;;;;494012;241;28922;-69
2022/09/02 09:59:37;;;;;;;2.50;2.30;;;19.80;99.90;;;;;;494080;241;28795;-69
2022/09/02 10:01:38;;;;;;;2.17;2.07;;;19.90;99.90;;;;;;494083;241;28821;-73
2022/09/02 10:03:39;;;;;;;2.17;2.07;;;19.90;99.90;;;;;;494012;241;28886;-69
2022/09/02 10:05:41;;;;;;;2.40;2.20;;;19.90;99.90;;;;;;494096;241;28818;-69
2022/09/02 10:07:42;;;;;;;3.27;2.30;;;19.90;99.90;;;;;;494043;241;28788;-69
2022/09/02 10:09:43;;;;;;;1.97;1.87;;;19.90;99.90;;;;;;494037;241;28843;-70
2022/09/02 10:11:44;;;;;;;2.27;2.17;;;20.20;99.90;;;;;;494087;241;28921;-74
2022/09/02 10:13:46;;;;;;;2.03;1.93;;;20.10;99.90;;;;;;494082;241;28783;-69
2022/09/02 10:15:47;;;;;;;2.00;1.90;;;20.00;99.90;;;;;;494082;241;29294;-69
2022/09/02 10:17:48;;;;;;;2.10;2.00;;;20.10;99.90;;;;;;494021;241;29252;-69
2022/09/02 10:19:49;;;;;;;2.37;2.20;;;20.10;99.90;;;;;;494005;241;29438;-69
2022/09/02 10:21:51;;;;;;;2.07;1.97;;;20.20;99.90;;;;;;494076;241;28929;-72
2022/09/02 10:23:52;;;;;;;1.90;1.80;;;20.30;99.90;;;;;;494064;241;28799;-70
2022/09/02 10:25:53;;;;;;;2.10;2.00;;;20.20;99.90;;;;;;494068;241;28838;-70
2022/09/02 10:27:54;;;;;;;2.37;2.17;;;20.40;99.90;;;;;;494025;241;28843;-70
2022/09/02 10:29:56;;;;;;;1.80;1.70;;;20.40;99.90;;;;;;494064;241;28838;-69
2022/09/02 10:31:57;;;;;;;2.63;2.40;;;20.40;99.90;;;;;;494065;241;28937;-72
2022/09/02 10:33:59;;;;;;;2.00;1.90;;;20.40;99.90;;;;;;494060;241;28828;-69
2022/09/02 10:36:00;;;;;;;2.50;2.30;;;20.50;99.90;;;;;;493944;241;28901;-71